»·PEaware :: UAL1399 KLAS-KSNA

UAL1399 :: KLAS-KSNA

FLIGHT INFORMATION

Flight Status: Arrived
Operator:
United Airlines
More flights by this operator :: More flights under this callsign
Pilot: David C. (16084)
Aircraft: AIRBUS A320
(A320)
More flights by this aircraft type
Origin: KLAS McCarran Intl
United States
Destination: KSNA John Wayne-Orange Co
United States
More flights between these airports :: More routes between these airports
Route: +LRSON ROOBY3
File this flight plan on PilotEdge
Remarks:
Altitude:
(Current/Filed)
26,000ft
Speed:
(Current/Filed)
478kts
Departed: 24-Mar-20 12:15 PM
Arrived: 24-Mar-20 01:01 PM
Distance/Time
Traveled:
196nm/0:46
Distance/Time
To Go:
Arrived

Flight Plot

Page will automatically refresh every two minutes.

Flight plan parsing failed; only flown route is shown


Map Options




Map Legend


Flown Route
Filed Route
Departure Airport
Arrival Airport
Navaid (VOR, NDB)
Fix

Horizontal Profiles

Position Reports

Time Latitude Longitude Heading Altitude Ground
Speed
24-Mar-20 11:18 36.085347 -115.140011 0 2066ft 0kts
24-Mar-20 11:19 36.085347 -115.140011 0 2066ft 0kts
24-Mar-20 11:20 36.085347 -115.140011 0 2066ft 0kts
24-Mar-20 11:21 36.085347 -115.140011 0 2066ft 0kts
24-Mar-20 11:22 36.085347 -115.140011 0 2066ft 0kts
24-Mar-20 11:23 36.085347 -115.140011 0 2066ft 0kts
24-Mar-20 11:24 36.085347 -115.140011 0 2066ft 0kts
24-Mar-20 11:25 36.085347 -115.140011 0 2066ft 0kts
24-Mar-20 11:26 36.085347 -115.140011 0 2066ft 0kts
24-Mar-20 11:27 36.085347 -115.140011 0 2066ft 0kts
24-Mar-20 11:28 36.085347 -115.140011 0 2066ft 0kts
24-Mar-20 11:29 36.085347 -115.140011 0 2066ft 0kts
24-Mar-20 11:30 36.085347 -115.140011 0 2066ft 0kts
24-Mar-20 11:31 36.085347 -115.140011 0 2066ft 0kts
24-Mar-20 11:32 36.085347 -115.140011 0 2066ft 0kts
24-Mar-20 11:33 36.085347 -115.140011 0 2066ft 0kts
24-Mar-20 11:34 36.085347 -115.140011 0 2066ft 0kts
24-Mar-20 11:35 36.085347 -115.140011 0 2066ft 0kts
24-Mar-20 11:36 36.085347 -115.140011 0 2066ft 0kts
24-Mar-20 11:37 36.085347 -115.140011 0 2066ft 0kts
24-Mar-20 11:38 36.085347 -115.140011 0 2066ft 0kts
24-Mar-20 11:39 36.085347 -115.140011 0 2066ft 0kts
24-Mar-20 11:40 36.085347 -115.140011 0 2066ft 0kts
24-Mar-20 11:42 36.085347 -115.140011 0 2066ft 0kts
24-Mar-20 11:43 36.085347 -115.140011 0 2066ft 0kts
24-Mar-20 11:44 36.085347 -115.140011 0 2066ft 0kts
24-Mar-20 11:45 36.085347 -115.140011 0 2066ft 0kts
24-Mar-20 11:46 36.085347 -115.140011 0 2066ft 0kts
24-Mar-20 11:47 36.085347 -115.140011 0 2066ft 0kts
24-Mar-20 11:48 36.085347 -115.140011 0 2066ft 0kts
24-Mar-20 11:49 36.085347 -115.140011 0 2066ft 0kts
24-Mar-20 11:50 36.085347 -115.140011 0 2066ft 0kts
24-Mar-20 11:51 36.085347 -115.140011 0 2066ft 0kts
24-Mar-20 11:52 36.085347 -115.140011 0 2066ft 0kts
24-Mar-20 11:53 36.085347 -115.140011 0 2066ft 0kts
24-Mar-20 11:54 36.085347 -115.140011 0 2066ft 0kts
24-Mar-20 11:55 36.085347 -115.140011 0 2066ft 0kts
24-Mar-20 11:56 36.085347 -115.140011 0 2066ft 0kts
24-Mar-20 11:57 36.085346 -115.140011 0 2066ft 0kts
24-Mar-20 11:58 36.085346 -115.140011 0 2066ft 0kts
24-Mar-20 11:58 36.085271 -115.140006 350 2066ft 2kts
24-Mar-20 12:00 36.084637 -115.140284 51 2068ft 2kts
24-Mar-20 12:01 36.084577 -115.140389 57 2068ft 0kts
24-Mar-20 12:02 36.084577 -115.140389 57 2068ft 0kts
24-Mar-20 12:02 36.084577 -115.140389 57 2068ft 0kts
24-Mar-20 12:04 36.084645 -115.138950 90 2063ft 12kts
24-Mar-20 12:05 36.084075 -115.133871 136 2050ft 12kts
24-Mar-20 12:05 36.081500 -115.132906 179 2053ft 10kts
24-Mar-20 12:06 36.079727 -115.132915 182 2056ft 0kts
24-Mar-20 12:08 36.079536 -115.132925 182 2057ft 4kts
24-Mar-20 12:08 36.078269 -115.130718 88 2053ft 23kts
24-Mar-20 12:09 36.078181 -115.122722 112 2037ft 17kts
24-Mar-20 12:10 36.077538 -115.121585 139 2038ft 0kts
24-Mar-20 12:11 36.077538 -115.121585 139 2038ft 0kts
24-Mar-20 12:12 36.077538 -115.121585 139 2038ft 0kts
24-Mar-20 12:13 36.076420 -115.123119 269 2040ft 37kts
24-Mar-20 12:14 36.077052 -115.175695 266 3379ft 204kts
24-Mar-20 12:15 36.070512 -115.247078 231 6351ft 224kts
24-Mar-20 12:16 36.010086 -115.284298 201 7013ft 254kts
24-Mar-20 12:17 35.941314 -115.305355 187 7514ft 260kts
24-Mar-20 12:18 35.867766 -115.313914 188 10713ft 278kts
24-Mar-20 12:19 35.783350 -115.306756 179 13330ft 314kts
24-Mar-20 12:20 35.691212 -115.301113 197 15299ft 341kts
24-Mar-20 12:21 35.620370 -115.373021 228 17840ft 337kts
24-Mar-20 12:22 35.556859 -115.458130 228 20139ft 341kts
24-Mar-20 12:23 35.492679 -115.544219 229 22149ft 344kts
24-Mar-20 12:24 35.428016 -115.631450 230 23914ft 349kts
24-Mar-20 12:25 35.363873 -115.717731 230 25535ft 352kts
24-Mar-20 12:26 35.296148 -115.808658 230 26145ft 378kts
24-Mar-20 12:27 35.222888 -115.906408 229 26162ft 394kts
24-Mar-20 12:28 35.147232 -116.001830 229 26162ft 392kts
24-Mar-20 12:29 35.071069 -116.097717 229 26161ft 392kts
24-Mar-20 12:30 34.995359 -116.192786 229 26164ft 393kts
24-Mar-20 12:31 34.918479 -116.289054 229 26141ft 399kts
24-Mar-20 12:32 34.842272 -116.385253 230 26157ft 406kts
24-Mar-20 12:33 34.764231 -116.484663 230 26210ft 407kts
24-Mar-20 12:34 34.684594 -116.582703 225 26202ft 409kts
24-Mar-20 12:35 34.601482 -116.664424 223 25269ft 356kts
24-Mar-20 12:36 34.527657 -116.736530 223 22091ft 332kts
24-Mar-20 12:37 34.462780 -116.807596 227 19934ft 299kts
24-Mar-20 12:38 34.403494 -116.876472 226 18095ft 295kts
24-Mar-20 12:39 34.344168 -116.945233 226 16303ft 296kts
24-Mar-20 12:40 34.284625 -117.013803 225 14513ft 295kts
24-Mar-20 12:41 34.216584 -117.069933 213 13487ft 301kts
24-Mar-20 12:42 34.142460 -117.119504 208 12876ft 308kts
24-Mar-20 12:43 34.064918 -117.165026 208 12486ft 312kts
24-Mar-20 12:44 33.986313 -117.211072 208 12083ft 315kts
24-Mar-20 12:45 33.907034 -117.255079 205 10709ft 310kts
24-Mar-20 12:46 33.832194 -117.295731 208 9907ft 280kts
24-Mar-20 12:47 33.762459 -117.337364 209 8973ft 279kts
24-Mar-20 12:48 33.692875 -117.378831 209 8011ft 280kts
24-Mar-20 12:49 33.623011 -117.420250 208 7052ft 280kts
24-Mar-20 12:50 33.575806 -117.475392 271 6196ft 225kts
24-Mar-20 12:51 33.574373 -117.543810 264 5689ft 208kts
24-Mar-20 12:52 33.572901 -117.613102 265 4901ft 204kts
24-Mar-20 12:53 33.571644 -117.681376 265 4128ft 203kts
24-Mar-20 12:54 33.562970 -117.748315 251 3995ft 202kts
24-Mar-20 12:55 33.548861 -117.814140 252 3867ft 206kts
24-Mar-20 12:56 33.537767 -117.877718 273 2737ft 190kts
24-Mar-20 12:57 33.569502 -117.921515 348 1605ft 182kts
24-Mar-20 12:58 33.615546 -117.906369 30 1195ft 159kts
24-Mar-20 12:59 33.650572 -117.884450 30 455ft 137kts
24-Mar-20 13:00 33.678221 -117.867221 27 65ft 33kts
24-Mar-20 13:01 33.680476 -117.864759 120 65ft 0kts
24-Mar-20 13:02 33.680476 -117.864759 120 65ft 0kts
24-Mar-20 13:03 33.679897 -117.863477 117 65ft 11kts
24-Mar-20 13:04 33.679009 -117.862609 116 65ft 0kts
24-Mar-20 13:05 33.679009 -117.862609 116 65ft 0kts

Navigation Log

Ident Type
Flight plan parsing failed, navigation log unavailable